createdAt,value
2018-08-16T00:00:31.250Z,21.22
2018-08-16T00:02:59.638Z,21.22
2018-08-16T00:05:28.014Z,21.22
2018-08-16T00:07:56.711Z,21.23
2018-08-16T00:10:25.098Z,21.22
2018-08-16T00:12:53.514Z,21.21
2018-08-16T00:15:22.851Z,21.21
2018-08-16T00:17:51.274Z,21.22
2018-08-16T00:20:19.639Z,21.23
2018-08-16T00:22:48.323Z,21.24
2018-08-16T00:25:17.294Z,21.24
2018-08-16T00:27:45.715Z,21.24
2018-08-16T00:30:16.226Z,21.26
2018-08-16T00:32:45.002Z,21.27
2018-08-16T00:35:13.494Z,21.29
2018-08-16T00:37:41.930Z,21.28
2018-08-16T00:40:12.570Z,21.29
2018-08-16T00:42:40.962Z,21.27
2018-08-16T00:45:10.103Z,21.28
2018-08-16T00:47:38.491Z,21.28
2018-08-16T00:50:08.584Z,21.28
2018-08-16T00:52:36.999Z,21.27
2018-08-16T00:55:06.379Z,21.28
2018-08-16T00:57:34.943Z,21.28
2018-08-16T01:00:03.330Z,21.29
2018-08-16T01:02:31.719Z,21.30
2018-08-16T01:05:00.090Z,21.31
2018-08-16T01:07:28.485Z,21.31
2018-08-16T01:09:56.859Z,21.32
2018-08-16T01:12:25.267Z,21.32
2018-08-16T01:14:53.671Z,21.30
2018-08-16T01:17:22.072Z,21.30
2018-08-16T01:19:50.465Z,21.27
2018-08-16T01:22:18.866Z,21.26
2018-08-16T01:24:47.230Z,21.25
2018-08-16T01:27:15.803Z,21.25
2018-08-16T01:29:44.178Z,21.25
2018-08-16T01:32:12.583Z,21.25
2018-08-16T01:34:40.954Z,21.25
2018-08-16T01:37:09.367Z,21.25
2018-08-16T01:39:37.741Z,21.27
2018-08-16T01:42:06.143Z,21.27
2018-08-16T01:44:34.505Z,21.26
2018-08-16T01:47:02.895Z,21.26
2018-08-16T01:49:35.760Z,21.27
2018-08-16T01:52:04.158Z,21.26
2018-08-16T01:54:32.782Z,21.26
2018-08-16T01:57:01.849Z,21.26
2018-08-16T01:59:30.238Z,21.25
2018-08-16T02:01:58.605Z,21.25
2018-08-16T02:04:27.007Z,21.26
2018-08-16T02:06:55.425Z,21.26
2018-08-16T02:09:24.297Z,21.26
2018-08-16T02:11:53.055Z,21.27
2018-08-16T02:14:21.866Z,21.25
2018-08-16T02:16:51.038Z,21.25
2018-08-16T02:19:19.434Z,21.26
2018-08-16T02:21:47.798Z,21.26
2018-08-16T02:24:16.203Z,21.26
2018-08-16T02:26:44.574Z,21.25
2018-08-16T02:29:12.973Z,21.24
2018-08-16T02:31:41.346Z,21.22
2018-08-16T02:34:09.742Z,21.22
2018-08-16T02:36:38.106Z,21.21
2018-08-16T02:39:08.731Z,21.19
2018-08-16T02:41:37.391Z,21.17
2018-08-16T02:44:06.098Z,21.17
2018-08-16T02:46:34.474Z,21.14
2018-08-16T02:49:02.862Z,21.10
2018-08-16T02:51:31.226Z,21.07
2018-08-16T02:53:59.613Z,21.07
2018-08-16T02:56:27.995Z,21.04
2018-08-16T02:58:56.382Z,21.02
2018-08-16T03:01:24.745Z,21.00
2018-08-16T03:03:53.143Z,20.97
2018-08-16T03:06:21.526Z,20.96
2018-08-16T03:08:49.918Z,20.93
2018-08-16T03:11:18.299Z,20.92
2018-08-16T03:13:46.685Z,20.91
2018-08-16T03:16:15.077Z,20.89
2018-08-16T03:18:43.473Z,20.88
2018-08-16T03:21:11.839Z,20.87
2018-08-16T03:23:40.235Z,20.84
2018-08-16T03:26:08.602Z,20.84
2018-08-16T03:28:36.993Z,20.81
2018-08-16T03:31:05.463Z,20.81
2018-08-16T03:33:33.854Z,20.79
2018-08-16T03:36:02.218Z,20.76
2018-08-16T03:38:30.611Z,20.73
2018-08-16T03:40:58.970Z,20.68
2018-08-16T03:43:27.371Z,20.65
2018-08-16T03:45:55.733Z,20.62
2018-08-16T03:48:24.126Z,20.58
2018-08-16T03:50:52.500Z,20.57
2018-08-16T03:53:20.905Z,20.54
2018-08-16T03:55:49.281Z,20.52
2018-08-16T03:58:17.649Z,20.50
2018-08-16T04:00:46.121Z,20.50
2018-08-16T04:03:14.491Z,20.52
2018-08-16T04:05:42.881Z,20.50
2018-08-16T04:08:11.245Z,20.54
2018-08-16T04:10:40.105Z,20.54
2018-08-16T04:13:08.473Z,20.56
2018-08-16T04:15:37.054Z,20.58
2018-08-16T04:18:11.990Z,20.59
2018-08-16T04:20:40.423Z,20.58
2018-08-16T04:23:08.805Z,20.59
2018-08-16T04:25:37.186Z,20.59
2018-08-16T04:28:05.675Z,20.60
2018-08-16T04:30:34.187Z,20.61
2018-08-16T04:33:02.550Z,20.61
2018-08-16T04:35:30.977Z,20.61
2018-08-16T04:37:59.333Z,20.61
2018-08-16T04:40:27.725Z,20.61
2018-08-16T04:42:56.093Z,20.63
2018-08-16T04:45:24.511Z,20.63
2018-08-16T04:47:52.877Z,20.66
2018-08-16T04:50:21.286Z,20.68
2018-08-16T04:52:49.662Z,20.69
2018-08-16T04:55:18.073Z,20.72
2018-08-16T04:57:46.442Z,20.74
2018-08-16T05:00:14.858Z,20.75
2018-08-16T05:02:43.253Z,20.75
2018-08-16T05:05:11.646Z,20.80
2018-08-16T05:07:40.136Z,20.83
2018-08-16T05:10:10.093Z,20.86
2018-08-16T05:12:38.655Z,20.89
2018-08-16T05:15:09.107Z,20.93
2018-08-16T05:17:37.494Z,20.98
2018-08-16T05:20:07.719Z,21.03
2018-08-16T05:22:36.099Z,21.08
2018-08-16T05:25:05.285Z,21.13
2018-08-16T05:27:33.751Z,21.18
2018-08-16T05:30:02.159Z,21.23
2018-08-16T05:32:30.539Z,21.27
2018-08-16T05:34:59.106Z,21.30
2018-08-16T05:37:27.488Z,21.33
2018-08-16T05:39:55.878Z,21.38
2018-08-16T05:42:24.426Z,21.43
2018-08-16T05:44:52.825Z,21.48
2018-08-16T05:47:21.185Z,21.54
2018-08-16T05:49:49.569Z,21.56
2018-08-16T05:52:18.041Z,21.60
2018-08-16T05:54:46.438Z,21.64
2018-08-16T05:57:14.802Z,21.68
2018-08-16T05:59:43.185Z,21.73
2018-08-16T06:02:11.650Z,21.77
2018-08-16T06:04:40.069Z,21.81
2018-08-16T06:07:08.451Z,21.84
2018-08-16T06:09:36.827Z,21.90
2018-08-16T06:12:05.345Z,21.93
2018-08-16T06:14:33.710Z,21.98
2018-08-16T06:17:02.118Z,22.06
2018-08-16T06:19:30.485Z,22.13
2018-08-16T06:21:58.892Z,22.19
2018-08-16T06:24:27.267Z,22.27
2018-08-16T06:26:55.662Z,22.32
2018-08-16T06:29:24.036Z,22.37
2018-08-16T06:31:52.428Z,22.42
2018-08-16T06:34:20.821Z,22.44
2018-08-16T06:36:49.209Z,22.49
2018-08-16T06:39:17.582Z,22.54
2018-08-16T06:41:45.979Z,22.60
2018-08-16T06:44:14.346Z,22.64
2018-08-16T06:46:42.734Z,22.69
2018-08-16T06:49:11.114Z,22.72
2018-08-16T06:51:39.519Z,22.74
2018-08-16T06:54:08.065Z,22.80
2018-08-16T06:56:36.449Z,22.84
2018-08-16T06:59:04.862Z,22.90
2018-08-16T07:01:33.410Z,22.96
2018-08-16T07:04:01.793Z,23.00
2018-08-16T07:06:30.188Z,23.04
2018-08-16T07:08:58.567Z,23.10
2018-08-16T07:11:26.954Z,23.15
2018-08-16T07:13:55.345Z,23.20
2018-08-16T07:16:23.777Z,23.28
2018-08-16T07:18:52.302Z,23.36
2018-08-16T07:21:20.683Z,23.43
2018-08-16T07:23:49.274Z,23.50
2018-08-16T07:26:17.670Z,23.56
2018-08-16T07:28:46.157Z,23.62
2018-08-16T07:31:14.550Z,23.68
2018-08-16T07:33:42.940Z,23.74
2018-08-16T07:36:11.337Z,23.81
2018-08-16T07:38:39.913Z,23.88
2018-08-16T07:41:08.311Z,23.94
2018-08-16T07:43:36.682Z,23.99
2018-08-16T07:46:05.352Z,24.06
2018-08-16T07:48:33.648Z,24.11
2018-08-16T07:51:02.130Z,24.20
2018-08-16T07:53:30.474Z,24.27
2018-08-16T07:55:58.882Z,24.33
2018-08-16T07:58:27.407Z,24.36
2018-08-16T08:00:55.938Z,24.40
2018-08-16T08:03:24.380Z,24.45
2018-08-16T08:05:52.794Z,24.49
2018-08-16T08:08:21.175Z,24.53
2018-08-16T08:10:49.545Z,24.58
2018-08-16T08:13:17.934Z,24.65
2018-08-16T08:15:46.321Z,24.70
2018-08-16T08:18:14.701Z,24.76
2018-08-16T08:20:43.115Z,24.82
2018-08-16T08:23:11.502Z,24.86
2018-08-16T08:25:40.010Z,24.91
2018-08-16T08:28:08.678Z,24.97
2018-08-16T08:30:37.050Z,25.04
2018-08-16T08:33:05.472Z,25.10
2018-08-16T08:35:33.924Z,25.18
2018-08-16T08:38:09.881Z,25.27
2018-08-16T08:40:38.272Z,25.35
2018-08-16T08:43:07.010Z,25.45
2018-08-16T08:45:35.381Z,25.52
2018-08-16T08:48:03.774Z,25.58
2018-08-16T08:50:32.162Z,25.67
2018-08-16T08:53:11.786Z,25.76
2018-08-16T08:55:51.418Z,25.81
2018-08-16T08:58:51.946Z,25.90
2018-08-16T09:01:20.317Z,25.94
2018-08-16T09:03:48.707Z,25.98
2018-08-16T09:06:17.071Z,26.02
2018-08-16T09:08:45.457Z,26.07
2018-08-16T09:11:25.227Z,26.09
2018-08-16T09:14:06.286Z,26.12
2018-08-16T09:16:41.702Z,26.14
2018-08-16T09:19:10.818Z,26.17
2018-08-16T09:21:39.210Z,26.19
2018-08-16T09:24:07.705Z,26.22
2018-08-16T09:26:39.726Z,26.27
2018-08-16T09:30:20.732Z,26.35
2018-08-16T09:33:00.500Z,26.44
2018-08-16T09:35:29.569Z,26.49
2018-08-16T09:37:58.364Z,26.54
2018-08-16T09:40:26.747Z,26.61
2018-08-16T09:42:55.150Z,26.67
2018-08-16T09:45:34.892Z,26.69
2018-08-16T09:48:14.656Z,26.71
2018-08-16T09:50:43.111Z,26.76
2018-08-16T09:53:11.501Z,26.78
2018-08-16T09:55:39.915Z,26.82
2018-08-16T09:58:08.322Z,26.90
2018-08-16T10:00:41.938Z,26.98
2018-08-16T10:03:10.350Z,27.06
2018-08-16T10:05:38.743Z,27.11
2018-08-16T10:08:07.158Z,27.15
2018-08-16T10:10:35.534Z,27.20
2018-08-16T10:13:03.930Z,27.27
2018-08-16T10:15:32.337Z,27.32
2018-08-16T10:18:00.703Z,27.40
2018-08-16T10:20:29.096Z,27.46
2018-08-16T10:22:57.513Z,27.51
2018-08-16T10:25:25.903Z,27.58
2018-08-16T10:27:54.269Z,27.66
2018-08-16T10:30:22.683Z,27.69
2018-08-16T10:32:51.054Z,27.76
2018-08-16T10:35:19.448Z,27.82
2018-08-16T10:37:47.819Z,27.82
2018-08-16T10:40:16.220Z,27.82
2018-08-16T10:42:44.595Z,27.84
2018-08-16T10:45:13.007Z,27.89
2018-08-16T10:47:41.382Z,27.97
2018-08-16T10:50:09.789Z,28.06
2018-08-16T10:52:38.171Z,28.16
2018-08-16T10:55:06.647Z,28.23
2018-08-16T10:57:35.010Z,28.31
2018-08-16T11:00:03.428Z,28.34
2018-08-16T11:02:31.816Z,28.39
2018-08-16T11:05:00.218Z,28.46
2018-08-16T11:07:28.602Z,28.54
2018-08-16T11:09:56.999Z,28.61
2018-08-16T11:12:25.379Z,28.65
2018-08-16T11:14:53.823Z,28.70
2018-08-16T11:17:22.187Z,28.74
2018-08-16T11:19:50.581Z,28.77
2018-08-16T11:22:18.951Z,28.79
2018-08-16T11:24:47.341Z,28.83
2018-08-16T11:27:15.779Z,28.87
2018-08-16T11:29:44.171Z,28.91
2018-08-16T11:32:12.546Z,28.96
2018-08-16T11:34:40.942Z,28.97
2018-08-16T11:37:09.314Z,29.01
2018-08-16T11:39:37.709Z,29.04
2018-08-16T11:42:06.081Z,29.08
2018-08-16T11:44:34.470Z,29.14
2018-08-16T11:47:02.838Z,29.19
2018-08-16T11:49:31.230Z,29.20
2018-08-16T11:51:59.602Z,29.22
2018-08-16T11:54:27.994Z,29.24
2018-08-16T11:56:56.377Z,29.24
2018-08-16T11:59:24.782Z,29.24
2018-08-16T12:01:53.155Z,29.22
2018-08-16T12:04:21.559Z,29.25
2018-08-16T12:06:49.944Z,29.29
2018-08-16T12:09:18.319Z,29.32
2018-08-16T12:11:46.719Z,29.35
2018-08-16T12:14:15.085Z,29.35
2018-08-16T12:16:43.496Z,29.37
2018-08-16T12:19:11.858Z,29.42
2018-08-16T12:21:40.272Z,29.46
2018-08-16T12:24:08.645Z,29.49
2018-08-16T12:26:37.058Z,29.53
2018-08-16T12:29:05.478Z,29.56
2018-08-16T12:31:33.945Z,29.60
2018-08-16T12:34:02.314Z,29.64
2018-08-16T12:36:30.715Z,29.66
2018-08-16T12:38:59.311Z,29.68
2018-08-16T12:41:27.712Z,29.71
2018-08-16T12:43:56.099Z,29.77
2018-08-16T12:46:24.522Z,29.79
2018-08-16T12:48:52.918Z,29.82
2018-08-16T12:51:21.313Z,29.75
2018-08-16T12:53:49.691Z,29.86
2018-08-16T12:56:18.083Z,29.87
2018-08-16T12:58:46.449Z,29.88
2018-08-16T13:01:14.852Z,29.90
2018-08-16T13:03:43.227Z,29.93
2018-08-16T13:06:11.676Z,29.87
2018-08-16T13:08:40.055Z,29.85
2018-08-16T13:11:08.445Z,29.84
2018-08-16T13:13:36.835Z,29.86
2018-08-16T13:16:05.253Z,29.88
2018-08-16T13:18:35.275Z,29.90
2018-08-16T13:21:03.676Z,29.94
2018-08-16T13:23:32.111Z,29.93
2018-08-16T13:26:00.462Z,29.96
2018-08-16T13:28:28.835Z,29.98
2018-08-16T13:30:57.230Z,29.98
2018-08-16T13:33:25.685Z,30.00
2018-08-16T13:35:54.074Z,30.02
2018-08-16T13:38:22.447Z,30.08
2018-08-16T13:40:50.842Z,29.87
2018-08-16T13:43:19.224Z,30.12
2018-08-16T13:45:47.627Z,30.16
2018-08-16T13:48:16.007Z,30.23
2018-08-16T13:50:44.417Z,30.27
2018-08-16T13:53:12.800Z,30.29
2018-08-16T13:55:41.194Z,30.32
2018-08-16T13:58:09.564Z,30.30
2018-08-16T14:00:37.950Z,30.29
2018-08-16T14:03:06.469Z,30.29
2018-08-16T14:05:34.873Z,30.32
2018-08-16T14:08:03.265Z,30.34
2018-08-16T14:10:31.638Z,30.36
2018-08-16T14:13:00.025Z,30.37
2018-08-16T14:15:28.424Z,30.37
2018-08-16T14:17:56.818Z,30.42
2018-08-16T14:20:25.190Z,30.44
2018-08-16T14:22:53.590Z,30.46
2018-08-16T14:25:21.987Z,30.48
2018-08-16T14:27:50.369Z,30.50
2018-08-16T14:30:18.758Z,30.48
2018-08-16T14:32:47.150Z,30.47
2018-08-16T14:35:15.525Z,30.48
2018-08-16T14:37:43.914Z,30.47
2018-08-16T14:40:12.300Z,30.48
2018-08-16T14:42:40.733Z,30.48
2018-08-16T14:45:09.601Z,30.49
2018-08-16T14:47:38.320Z,30.51
2018-08-16T14:50:07.382Z,30.55
2018-08-16T14:52:35.909Z,30.57
2018-08-16T14:55:04.724Z,30.58
2018-08-16T14:57:33.125Z,30.60
2018-08-16T15:00:01.607Z,30.60
2018-08-16T15:02:29.997Z,30.63
2018-08-16T15:04:58.370Z,30.65
2018-08-16T15:07:26.762Z,30.71
2018-08-16T15:09:55.143Z,30.74
2018-08-16T15:12:23.606Z,30.76
2018-08-16T15:14:52.007Z,30.78
2018-08-16T15:17:20.422Z,30.77
2018-08-16T15:19:48.794Z,30.79
2018-08-16T15:22:17.211Z,30.80
2018-08-16T15:24:45.580Z,30.82
2018-08-16T15:27:13.983Z,30.84
2018-08-16T15:29:42.368Z,30.86
2018-08-16T15:32:10.781Z,30.87
2018-08-16T15:34:39.158Z,30.89
2018-08-16T15:37:07.545Z,30.90
2018-08-16T15:39:35.983Z,30.91
2018-08-16T15:42:04.418Z,30.90
2018-08-16T15:44:32.770Z,30.87
2018-08-16T15:47:01.220Z,30.82
2018-08-16T15:49:29.623Z,30.77
2018-08-16T15:51:58.018Z,30.76
2018-08-16T15:54:26.403Z,30.75
2018-08-16T15:56:54.803Z,30.75
2018-08-16T15:59:23.187Z,30.75
2018-08-16T16:01:51.575Z,30.74
2018-08-16T16:04:19.946Z,30.72
2018-08-16T16:06:48.323Z,30.73
2018-08-16T16:09:16.714Z,30.75
2018-08-16T16:11:45.103Z,30.76
2018-08-16T16:14:13.503Z,30.78
2018-08-16T16:16:41.908Z,30.78
2018-08-16T16:19:10.302Z,30.79
2018-08-16T16:21:38.706Z,30.82
2018-08-16T16:24:07.131Z,30.85
2018-08-16T16:26:35.528Z,30.87
2018-08-16T16:29:03.955Z,30.84
2018-08-16T16:31:32.339Z,30.81
2018-08-16T16:34:00.742Z,30.78
2018-08-16T16:36:29.154Z,30.79
2018-08-16T16:38:57.599Z,30.81
2018-08-16T16:41:26.115Z,30.84
2018-08-16T16:43:54.522Z,30.94
2018-08-16T16:46:22.903Z,31.10
2018-08-16T16:48:51.319Z,31.29
2018-08-16T16:51:19.695Z,31.50
2018-08-16T16:53:48.105Z,31.74
2018-08-16T16:56:16.478Z,31.97
2018-08-16T16:58:44.878Z,32.19
2018-08-16T17:01:13.734Z,32.40
2018-08-16T17:03:42.177Z,32.56
2018-08-16T17:06:10.590Z,32.73
2018-08-16T17:08:39.023Z,32.87
2018-08-16T17:11:07.467Z,32.98
2018-08-16T17:13:35.922Z,32.98
2018-08-16T17:16:04.662Z,32.97
2018-08-16T17:18:33.045Z,32.96
2018-08-16T17:21:01.417Z,32.94
2018-08-16T17:23:29.827Z,32.88
2018-08-16T17:25:58.226Z,32.67
2018-08-16T17:28:26.651Z,32.44
2018-08-16T17:30:55.058Z,32.21
2018-08-16T17:33:23.454Z,31.93
2018-08-16T17:35:51.834Z,31.68
2018-08-16T17:38:20.842Z,31.40
2018-08-16T17:40:49.264Z,31.15
2018-08-16T17:43:17.657Z,30.89
2018-08-16T17:45:46.040Z,30.66
2018-08-16T17:48:14.443Z,30.45
2018-08-16T17:50:42.831Z,30.28
2018-08-16T17:53:11.228Z,30.10
2018-08-16T17:55:39.607Z,29.79
2018-08-16T17:58:08.397Z,29.77
2018-08-16T18:00:36.767Z,29.61
2018-08-16T18:03:05.151Z,29.49
2018-08-16T18:05:33.541Z,29.37
2018-08-16T18:08:01.930Z,29.26
2018-08-16T18:10:30.347Z,29.15
2018-08-16T18:12:58.763Z,29.05
2018-08-16T18:15:27.186Z,28.96
2018-08-16T18:17:55.555Z,28.85
2018-08-16T18:20:23.954Z,28.75
2018-08-16T18:22:52.334Z,28.67
2018-08-16T18:25:20.730Z,28.59
2018-08-16T18:27:49.112Z,28.50
2018-08-16T18:30:17.515Z,28.41
2018-08-16T18:32:45.900Z,28.32
2018-08-16T18:35:14.310Z,28.23
2018-08-16T18:37:42.838Z,28.15
2018-08-16T18:40:11.246Z,28.05
2018-08-16T18:42:39.668Z,27.96
2018-08-16T18:45:08.028Z,27.87
2018-08-16T18:47:36.402Z,27.79
2018-08-16T18:50:04.929Z,27.71
2018-08-16T18:52:33.303Z,27.63
2018-08-16T18:55:01.701Z,27.49
2018-08-16T18:57:30.076Z,27.38
2018-08-16T18:59:58.610Z,27.27
2018-08-16T19:02:26.993Z,27.18
2018-08-16T19:04:55.423Z,27.08
2018-08-16T19:07:23.840Z,26.99
2018-08-16T19:09:52.242Z,26.86
2018-08-16T19:12:20.619Z,26.76
2018-08-16T19:14:49.005Z,26.63
2018-08-16T19:17:17.397Z,26.53
2018-08-16T19:19:45.799Z,26.42
2018-08-16T19:22:14.180Z,26.34
2018-08-16T19:24:49.315Z,26.24
2018-08-16T19:27:17.698Z,26.12
2018-08-16T19:29:46.116Z,26.03
2018-08-16T19:32:14.525Z,25.94
2018-08-16T19:34:42.930Z,25.87
2018-08-16T19:37:11.298Z,25.81
2018-08-16T19:39:39.686Z,25.76
2018-08-16T19:42:08.071Z,25.66
2018-08-16T19:44:36.467Z,25.56
2018-08-16T19:47:04.856Z,25.48
2018-08-16T19:49:33.274Z,25.38
2018-08-16T19:52:01.834Z,25.31
2018-08-16T19:54:30.233Z,25.23
2018-08-16T19:56:58.831Z,25.13
2018-08-16T19:59:27.199Z,25.04
2018-08-16T20:01:55.650Z,24.95
2018-08-16T20:04:24.112Z,24.88
2018-08-16T20:06:52.503Z,24.83
2018-08-16T20:09:20.878Z,24.78
2018-08-16T20:11:49.269Z,24.72
2018-08-16T20:14:17.642Z,24.66
2018-08-16T20:16:46.054Z,24.58
2018-08-16T20:19:14.447Z,24.54
2018-08-16T20:21:42.841Z,24.48
2018-08-16T20:24:11.295Z,24.42
2018-08-16T20:26:39.646Z,24.34
2018-08-16T20:29:08.047Z,24.30
2018-08-16T20:31:36.441Z,24.26
2018-08-16T20:34:04.821Z,24.22
2018-08-16T20:36:33.210Z,24.18
2018-08-16T20:39:01.742Z,24.16
2018-08-16T20:41:30.136Z,24.14
2018-08-16T20:43:58.515Z,24.11
2018-08-16T20:46:26.919Z,24.05
2018-08-16T20:48:55.290Z,23.99
2018-08-16T20:51:23.674Z,23.93
2018-08-16T20:53:52.047Z,23.89
2018-08-16T20:56:20.450Z,23.86
2018-08-16T20:58:48.818Z,23.83
2018-08-16T21:01:17.211Z,23.80
2018-08-16T21:03:45.587Z,23.77
2018-08-16T21:06:13.977Z,23.71
2018-08-16T21:08:42.351Z,23.66
2018-08-16T21:11:10.762Z,23.61
2018-08-16T21:13:39.164Z,23.55
2018-08-16T21:16:07.589Z,23.51
2018-08-16T21:18:36.219Z,23.49
2018-08-16T21:21:04.618Z,23.44
2018-08-16T21:23:32.989Z,23.41
2018-08-16T21:26:01.382Z,23.38
2018-08-16T21:28:29.750Z,23.35
2018-08-16T21:30:58.134Z,23.32
2018-08-16T21:33:26.511Z,23.29
2018-08-16T21:35:54.901Z,23.25
2018-08-16T21:38:23.266Z,23.21
2018-08-16T21:40:51.666Z,23.17
2018-08-16T21:43:20.034Z,23.13
2018-08-16T21:45:48.436Z,23.08
2018-08-16T21:48:16.854Z,23.05
2018-08-16T21:50:45.239Z,23.03
2018-08-16T21:53:13.603Z,22.99
2018-08-16T21:55:41.993Z,22.95
2018-08-16T21:58:10.353Z,22.91
2018-08-16T22:00:57.121Z,22.89
2018-08-16T22:03:26.803Z,22.83
2018-08-16T22:05:59.415Z,22.79
2018-08-16T22:08:44.863Z,22.73
2018-08-16T22:11:13.279Z,22.69
2018-08-16T22:13:41.831Z,22.65
2018-08-16T22:16:10.299Z,22.63
2018-08-16T22:18:39.089Z,22.61
2018-08-16T22:21:07.697Z,22.60
2018-08-16T22:23:36.057Z,22.60
2018-08-16T22:26:04.510Z,22.57
2018-08-16T22:28:33.017Z,22.55
2018-08-16T22:31:01.619Z,22.52
2018-08-16T22:33:30.720Z,22.50
2018-08-16T22:35:59.095Z,22.48
2018-08-16T22:38:27.490Z,22.43
2018-08-16T22:40:55.858Z,22.39
2018-08-16T22:43:24.250Z,22.35
2018-08-16T22:45:52.626Z,22.30
2018-08-16T22:48:21.009Z,22.26
2018-08-16T22:50:49.383Z,22.23
2018-08-16T22:53:17.778Z,22.20
2018-08-16T22:55:46.146Z,22.18
2018-08-16T22:58:14.542Z,22.16
2018-08-16T23:00:42.913Z,22.13
2018-08-16T23:03:11.301Z,22.10
2018-08-16T23:05:39.675Z,22.08
2018-08-16T23:08:08.286Z,22.06
2018-08-16T23:10:36.653Z,22.04
2018-08-16T23:13:05.067Z,22.04
2018-08-16T23:15:33.463Z,22.03
2018-08-16T23:18:01.856Z,22.02
2018-08-16T23:20:30.234Z,22.02
2018-08-16T23:22:58.630Z,22.01
2018-08-16T23:25:26.990Z,22.00
2018-08-16T23:27:55.395Z,22.01
2018-08-16T23:30:23.767Z,22.01
2018-08-16T23:32:52.150Z,22.01
2018-08-16T23:35:20.518Z,21.97
2018-08-16T23:37:48.910Z,21.93
2018-08-16T23:40:17.277Z,21.87
2018-08-16T23:42:45.661Z,21.84
2018-08-16T23:45:14.030Z,21.78
2018-08-16T23:47:43.558Z,21.74
2018-08-16T23:50:12.195Z,21.71
2018-08-16T23:52:40.594Z,21.68
2018-08-16T23:55:09.353Z,21.63
2018-08-16T23:57:37.750Z,21.61
